createdAt,value
2023-02-13T00:02:07.465Z,102259.69
2023-02-13T00:07:11.942Z,102242.59
2023-02-13T00:12:13.494Z,102255.41
2023-02-13T00:17:15.187Z,102251.56
2023-02-13T00:22:16.837Z,102247.97
2023-02-13T00:27:18.882Z,102266.19
2023-02-13T00:32:20.556Z,102264.50
2023-02-13T00:37:22.205Z,102257.41
2023-02-13T00:42:27.090Z,102259.75
2023-02-13T00:47:28.699Z,102259.16
2023-02-13T00:52:30.521Z,102258.31
2023-02-13T00:57:32.456Z,102257.50
2023-02-13T01:02:36.206Z,102258.78
2023-02-13T01:07:37.843Z,102258.28
2023-02-13T01:12:40.520Z,102257.56
2023-02-13T01:17:42.083Z,102268.06
2023-02-13T01:22:44.804Z,102272.09
2023-02-13T01:27:48.768Z,102272.03
2023-02-13T01:32:52.465Z,102262.66
2023-02-13T01:37:54.224Z,102259.63
2023-02-13T01:42:55.770Z,102269.88
2023-02-13T01:48:07.024Z,102254.50
2023-02-13T01:53:20.098Z,102266.56
2023-02-13T01:58:27.927Z,102256.03
2023-02-13T02:04:05.138Z,102254.47
2023-02-13T02:09:16.033Z,102256.31
2023-02-13T02:14:18.790Z,102279.28
2023-02-13T02:19:41.828Z,102272.28
2023-02-13T02:25:22.488Z,102274.34
2023-02-13T02:30:42.950Z,102262.22
2023-02-13T02:36:03.170Z,102256.06
2023-02-13T02:41:42.499Z,102252.63
2023-02-13T02:47:20.946Z,102242.53
2023-02-13T02:52:31.247Z,102240.56
2023-02-13T02:57:56.652Z,102234.53
2023-02-13T03:03:17.013Z,102233.44
2023-02-13T03:08:38.935Z,102237.34
2023-02-13T03:13:48.302Z,102230.84
2023-02-13T03:19:16.630Z,102240.38
2023-02-13T03:24:55.799Z,102244.50
2023-02-13T03:30:09.359Z,102248.81
2023-02-13T03:35:57.725Z,102263.53
2023-02-13T03:41:18.684Z,102276.06
2023-02-13T03:46:21.330Z,102279.31
2023-02-13T03:51:32.451Z,102296.16
2023-02-13T03:56:55.586Z,102300.63
2023-02-13T04:02:05.703Z,102307.19
2023-02-13T04:07:12.197Z,102309.56
2023-02-13T04:12:20.918Z,102309.25
2023-02-13T04:17:34.135Z,102302.47
2023-02-13T04:22:42.523Z,102307.63
2023-02-13T04:27:44.346Z,102306.44
2023-02-13T04:32:45.888Z,102310.81
2023-02-13T04:37:47.517Z,102320.72
2023-02-13T04:42:49.824Z,102310.22
2023-02-13T04:47:53.462Z,102307.53
2023-02-13T04:52:56.780Z,102302.78
2023-02-13T04:57:58.487Z,102299.44
2023-02-13T05:03:08.610Z,102301.84
2023-02-13T05:08:10.632Z,102299.56
2023-02-13T05:13:12.248Z,102299.06
2023-02-13T05:18:13.958Z,102287.75
2023-02-13T05:23:24.474Z,102290.78
2023-02-13T05:28:44.701Z,102284.25
2023-02-13T05:33:46.312Z,102287.44
2023-02-13T05:38:48.009Z,102290.53
2023-02-13T05:43:49.747Z,102291.03
2023-02-13T05:48:52.066Z,102303.16
2023-02-13T05:53:53.963Z,102296.25
2023-02-13T05:58:56.156Z,102299.91
2023-02-13T06:03:59.603Z,102296.53
2023-02-13T06:09:01.678Z,102297.97
2023-02-13T06:14:03.275Z,102293.75
2023-02-13T06:19:05.072Z,102297.53
2023-02-13T06:24:08.209Z,102291.56
2023-02-13T06:29:09.797Z,102296.41
2023-02-13T06:34:11.395Z,102304.72
2023-02-13T06:39:13.147Z,102314.53
2023-02-13T06:44:15.045Z,102316.38
2023-02-13T06:49:16.658Z,102322.69
2023-02-13T06:54:18.396Z,102324.94
2023-02-13T06:59:20.047Z,102329.16
2023-02-13T07:04:21.779Z,102332.94
2023-02-13T07:09:26.743Z,102339.47
2023-02-13T07:14:28.320Z,102346.72
2023-02-13T07:19:30.051Z,102352.19
2023-02-13T07:24:33.730Z,102361.59
2023-02-13T07:29:35.356Z,102364.09
2023-02-13T07:34:36.908Z,102372.00
2023-02-13T07:39:39.014Z,102370.06
2023-02-13T07:44:40.629Z,102381.06
2023-02-13T07:49:45.567Z,102381.84
2023-02-13T07:54:47.749Z,102385.69
2023-02-13T07:59:49.533Z,102380.91
2023-02-13T08:04:51.060Z,102393.13
2023-02-13T08:10:12.899Z,102388.38
2023-02-13T08:15:15.680Z,102394.88
2023-02-13T08:20:17.381Z,102393.72
2023-02-13T08:25:19.699Z,102396.31
2023-02-13T08:30:21.361Z,102392.09
2023-02-13T08:35:26.736Z,102389.31
2023-02-13T08:40:28.396Z,102388.22
2023-02-13T08:45:30.492Z,102386.63
2023-02-13T08:50:32.339Z,102382.09
2023-02-13T08:55:34.032Z,102382.78
2023-02-13T09:00:35.607Z,102390.03
2023-02-13T09:05:37.217Z,102390.50
2023-02-13T09:10:39.340Z,102385.78
2023-02-13T09:15:41.622Z,102394.97
2023-02-13T09:20:43.178Z,102387.34
2023-02-13T09:25:44.733Z,102384.31
2023-02-13T09:30:46.355Z,102377.59
2023-02-13T09:35:48.008Z,102391.66
2023-02-13T09:41:02.136Z,102396.13
2023-02-13T09:46:19.072Z,102396.75
2023-02-13T09:51:23.316Z,102404.09
2023-02-13T09:56:54.845Z,102402.97
2023-02-13T10:02:03.446Z,102401.56
2023-02-13T10:07:25.856Z,102406.06
2023-02-13T10:12:54.661Z,102400.78
2023-02-13T10:18:05.188Z,102404.13
2023-02-13T10:23:18.524Z,102410.56
2023-02-13T10:28:38.574Z,102399.47
2023-02-13T10:33:52.090Z,102393.72
2023-02-13T10:39:05.818Z,102390.09
2023-02-13T10:44:26.016Z,102386.06
2023-02-13T10:49:57.405Z,102373.91
2023-02-13T10:55:04.814Z,102361.97
2023-02-13T11:00:12.556Z,102355.06
2023-02-13T11:05:22.165Z,102347.94
2023-02-13T11:10:26.712Z,102347.53
2023-02-13T11:15:29.784Z,102335.97
2023-02-13T11:20:44.440Z,102334.50
2023-02-13T11:26:04.717Z,102340.22
2023-02-13T11:31:12.353Z,102326.41
2023-02-13T11:36:35.676Z,102318.06
2023-02-13T11:41:43.751Z,102317.38
2023-02-13T11:46:51.169Z,102324.56
2023-02-13T11:51:58.602Z,102311.84
2023-02-13T11:57:17.196Z,102312.09
2023-02-13T12:02:23.904Z,102310.97
2023-02-13T12:07:29.207Z,102304.97
2023-02-13T12:12:47.276Z,102305.25
2023-02-13T12:17:59.185Z,102304.53
2023-02-13T12:23:03.616Z,102303.53
2023-02-13T12:28:26.083Z,102298.94
2023-02-13T12:33:43.297Z,102291.59
2023-02-13T12:38:57.407Z,102288.56
2023-02-13T12:44:04.011Z,102285.66
2023-02-13T12:49:26.238Z,102271.31
2023-02-13T12:54:57.160Z,102268.84
2023-02-13T13:00:13.077Z,102259.25
2023-02-13T13:05:50.733Z,102265.25
2023-02-13T13:11:08.088Z,102254.47
2023-02-13T13:16:28.088Z,102258.44
2023-02-13T13:21:39.395Z,102253.78
2023-02-13T13:26:54.113Z,102255.81
2023-02-13T13:32:21.101Z,102252.25
2023-02-13T13:37:35.736Z,102246.94
2023-02-13T13:43:18.926Z,102242.38
2023-02-13T13:48:51.517Z,102240.75
2023-02-13T13:54:04.944Z,102238.72
2023-02-13T13:59:17.592Z,102238.88
2023-02-13T14:05:07.085Z,102229.16
2023-02-13T14:10:20.532Z,102235.44
2023-02-13T14:15:34.116Z,102240.03
2023-02-13T14:20:50.989Z,102230.34
2023-02-13T14:26:17.344Z,102233.50
2023-02-13T14:31:22.534Z,102218.34
2023-02-13T14:36:33.152Z,102210.88
2023-02-13T14:41:56.581Z,102208.00
2023-02-13T14:47:01.795Z,102194.88
2023-02-13T14:52:06.614Z,102188.88
2023-02-13T14:57:29.749Z,102183.88
2023-02-13T15:02:44.997Z,102177.75
2023-02-13T15:07:53.852Z,102177.75
2023-02-13T15:13:01.912Z,102171.47
2023-02-13T15:18:10.367Z,102171.47
2023-02-13T15:23:23.522Z,102168.66
2023-02-13T15:28:25.867Z,102156.38
2023-02-13T15:33:32.482Z,102164.81
2023-02-13T15:38:39.361Z,102162.44
2023-02-13T15:43:44.193Z,102165.28
2023-02-13T15:48:46.778Z,102174.19
2023-02-13T15:53:56.892Z,102168.53
2023-02-13T15:59:00.903Z,102171.84
2023-02-13T16:04:06.783Z,102170.03
2023-02-13T16:09:23.512Z,102172.63
2023-02-13T16:14:27.914Z,102166.53
2023-02-13T16:19:37.426Z,102165.16
2023-02-13T16:24:39.004Z,102172.03
2023-02-13T16:29:54.686Z,102165.34
2023-02-13T16:34:57.298Z,102165.81
2023-02-13T16:40:33.287Z,102160.84
2023-02-13T16:45:34.947Z,102172.28
2023-02-13T16:50:36.613Z,102172.69
2023-02-13T16:55:38.237Z,102174.25
2023-02-13T17:00:39.854Z,102176.66
2023-02-13T17:05:41.402Z,102178.31
2023-02-13T17:11:07.464Z,102180.81
2023-02-13T17:16:10.142Z,102190.97
2023-02-13T17:21:12.648Z,102195.31
2023-02-13T17:26:14.283Z,102198.91
2023-02-13T17:31:15.904Z,102201.59
2023-02-13T17:36:17.522Z,102209.44
2023-02-13T17:41:19.405Z,102210.72
2023-02-13T17:46:21.045Z,102215.94
2023-02-13T17:51:22.676Z,102216.72
2023-02-13T17:56:24.280Z,102224.25
2023-02-13T18:01:25.862Z,102221.81
2023-02-13T18:06:27.413Z,102222.16
2023-02-13T18:11:28.975Z,102220.47
2023-02-13T18:16:32.102Z,102221.97
2023-02-13T18:21:33.674Z,102210.66
2023-02-13T18:26:35.330Z,102225.47
2023-02-13T18:31:36.987Z,102221.41
2023-02-13T18:36:38.763Z,102214.03
2023-02-13T18:41:40.349Z,102205.06
2023-02-13T18:46:42.039Z,102205.69
2023-02-13T18:51:44.461Z,102207.47
2023-02-13T18:56:46.060Z,102222.03
2023-02-13T19:01:47.613Z,102227.84
2023-02-13T19:06:49.242Z,102220.97
2023-02-13T19:11:51.649Z,102228.31
2023-02-13T19:16:53.212Z,102230.50
2023-02-13T19:21:54.776Z,102240.41
2023-02-13T19:26:58.735Z,102229.69
2023-02-13T19:32:00.362Z,102234.81
2023-02-13T19:37:02.025Z,102238.06
2023-02-13T19:42:03.741Z,102237.25
2023-02-13T19:47:05.385Z,102247.06
2023-02-13T19:52:06.943Z,102257.53
2023-02-13T19:57:08.520Z,102252.59
2023-02-13T20:02:14.113Z,102248.72
2023-02-13T20:07:15.711Z,102248.19
2023-02-13T20:12:17.287Z,102248.84
2023-02-13T20:17:18.806Z,102248.53
2023-02-13T20:22:20.322Z,102256.59
2023-02-13T20:27:21.856Z,102255.97
2023-02-13T20:32:23.565Z,102263.94
2023-02-13T20:37:25.136Z,102266.47
2023-02-13T20:42:27.108Z,102264.91
2023-02-13T20:47:31.004Z,102270.03
2023-02-13T20:52:33.943Z,102266.97
2023-02-13T20:57:36.627Z,102259.44
2023-02-13T21:02:38.216Z,102263.63
2023-02-13T21:07:39.908Z,102259.75
2023-02-13T21:12:41.485Z,102254.38
2023-02-13T21:17:42.999Z,102257.66
2023-02-13T21:22:44.564Z,102263.94
2023-02-13T21:27:46.112Z,102257.81
2023-02-13T21:32:47.706Z,102258.88
2023-02-13T21:37:49.251Z,102258.78
2023-02-13T21:42:54.075Z,102259.28
2023-02-13T21:47:56.533Z,102256.13
2023-02-13T21:52:58.385Z,102259.69
2023-02-13T21:58:00.130Z,102254.06
2023-02-13T22:03:01.765Z,102260.94
2023-02-13T22:08:12.868Z,102259.22
2023-02-13T22:13:14.404Z,102259.56
2023-02-13T22:18:15.927Z,102258.75
2023-02-13T22:23:17.600Z,102264.03
2023-02-13T22:28:19.143Z,102264.03
2023-02-13T22:33:21.077Z,102271.91
2023-02-13T22:38:22.645Z,102274.22
2023-02-13T22:43:24.155Z,102265.78
2023-02-13T22:48:25.737Z,102261.59
2023-02-13T22:53:27.262Z,102264.53
2023-02-13T22:58:28.883Z,102270.53
2023-02-13T23:03:32.895Z,102278.94
2023-02-13T23:08:35.573Z,102275.66
2023-02-13T23:13:37.100Z,102273.44
2023-02-13T23:18:38.644Z,102270.00
2023-02-13T23:23:40.231Z,102274.53
2023-02-13T23:28:41.994Z,102279.19
2023-02-13T23:33:43.540Z,102281.94
2023-02-13T23:38:46.527Z,102278.91
2023-02-13T23:43:48.042Z,102276.41
2023-02-13T23:48:49.545Z,102270.06
2023-02-13T23:53:54.874Z,102273.25
2023-02-13T23:58:56.558Z,102272.13
